createdAt,value
2018-01-28T00:00:36.316Z,1011.8
2018-01-28T00:01:39.097Z,1011.7
2018-01-28T00:02:41.589Z,1011.7
2018-01-28T00:03:44.659Z,1011.8
2018-01-28T00:04:47.168Z,1011.9
2018-01-28T00:05:49.655Z,1011.8
2018-01-28T00:06:52.158Z,1011.8
2018-01-28T00:07:54.657Z,1011.7
2018-01-28T00:08:57.139Z,1011.9
2018-01-28T00:09:59.634Z,1011.8
2018-01-28T00:11:02.136Z,1011.7
2018-01-28T00:12:04.630Z,1011.7
2018-01-28T00:13:07.127Z,1011.8
2018-01-28T00:14:09.620Z,1011.6
2018-01-28T00:15:12.100Z,1011.7
2018-01-28T00:16:14.614Z,1011.7
2018-01-28T00:17:17.107Z,1011.9
2018-01-28T00:18:19.601Z,1011.8
2018-01-28T00:19:22.089Z,1011.9
2018-01-28T00:20:24.581Z,1011.8
2018-01-28T00:21:27.076Z,1011.7
2018-01-28T00:22:29.873Z,1011.8
2018-01-28T00:23:32.665Z,1011.7
2018-01-28T00:24:35.164Z,1011.6
2018-01-28T00:25:37.649Z,1011.6
2018-01-28T00:26:40.144Z,1011.6
2018-01-28T00:27:42.640Z,1011.5
2018-01-28T00:28:45.128Z,1011.8
2018-01-28T00:29:47.923Z,1011.6
2018-01-28T00:30:50.426Z,1011.6
2018-01-28T00:31:52.914Z,1011.6
2018-01-28T00:32:55.426Z,1011.7
2018-01-28T00:33:57.921Z,1011.6
2018-01-28T00:35:00.414Z,1011.6
2018-01-28T00:36:03.217Z,1011.7
2018-01-28T00:37:05.707Z,1011.5
2018-01-28T00:38:08.513Z,1011.5
2018-01-28T00:39:11.014Z,1011.7
2018-01-28T00:40:13.495Z,1011.5
2018-01-28T00:41:16.275Z,1011.5
2018-01-28T00:42:18.778Z,1011.6
2018-01-28T00:43:21.269Z,1011.6
2018-01-28T00:44:23.762Z,1011.5
2018-01-28T00:45:26.260Z,1011.5
2018-01-28T00:46:28.750Z,1011.5
2018-01-28T00:47:31.252Z,1011.5
2018-01-28T00:48:33.750Z,1011.5
2018-01-28T00:49:36.234Z,1011.4
2018-01-28T00:50:38.718Z,1011.3
2018-01-28T00:51:41.218Z,1011.4
2018-01-28T00:52:43.703Z,1011.5
2018-01-28T00:53:46.783Z,1011.1
2018-01-28T00:54:49.279Z,1011.4
2018-01-28T00:55:52.063Z,1011.3
2018-01-28T00:56:54.542Z,1011.4
2018-01-28T00:57:57.044Z,1011.3
2018-01-28T00:58:59.527Z,1011.2
2018-01-28T01:00:02.307Z,1011.2
2018-01-28T01:01:04.805Z,1011.2
2018-01-28T01:02:07.299Z,1011.3
2018-01-28T01:03:09.785Z,1011.2
2018-01-28T01:04:12.291Z,1011.1
2018-01-28T01:05:14.784Z,1011.3
2018-01-28T01:06:17.268Z,1011.2
2018-01-28T01:07:19.768Z,1011.3
2018-01-28T01:08:22.259Z,1011.2
2018-01-28T01:09:24.756Z,1011.2
2018-01-28T01:10:27.255Z,1011.1
2018-01-28T01:11:29.742Z,1011.1
2018-01-28T01:12:32.234Z,1011.1
2018-01-28T01:13:35.026Z,1011.1
2018-01-28T01:14:37.503Z,1011.2
2018-01-28T01:15:40.003Z,1011.2
2018-01-28T01:16:42.484Z,1011.2
2018-01-28T01:17:44.983Z,1011.2
2018-01-28T01:18:47.474Z,1011.2
2018-01-28T01:19:49.969Z,1011.2
2018-01-28T01:20:52.452Z,1011.2
2018-01-28T01:21:54.954Z,1011.2
2018-01-28T01:22:57.445Z,1011.2
2018-01-28T01:23:59.940Z,1011
2018-01-28T01:25:02.436Z,1011.2
2018-01-28T01:26:04.929Z,1011.2
2018-01-28T01:27:07.434Z,1011.1
2018-01-28T01:28:09.928Z,1011
2018-01-28T01:29:12.413Z,1011
2018-01-28T01:30:14.921Z,1011
2018-01-28T01:31:17.408Z,1011
2018-01-28T01:32:19.907Z,1011
2018-01-28T01:33:22.396Z,1011.1
2018-01-28T01:34:24.876Z,1011
2018-01-28T01:35:27.374Z,1011.1
2018-01-28T01:36:29.871Z,1011
2018-01-28T01:37:32.641Z,1010.9
2018-01-28T01:38:35.416Z,1010.8
2018-01-28T01:39:38.217Z,1011
2018-01-28T01:40:40.712Z,1011.3
2018-01-28T01:41:43.201Z,1011.1
2018-01-28T01:42:45.694Z,1011.2
2018-01-28T01:43:48.474Z,1011.1
2018-01-28T01:44:50.974Z,1011
2018-01-28T01:45:53.471Z,1011
2018-01-28T01:46:55.951Z,1011
2018-01-28T01:47:58.443Z,1011.1
2018-01-28T01:49:01.232Z,1010.9
2018-01-28T01:50:03.722Z,1011
2018-01-28T01:51:06.210Z,1010.9
2018-01-28T01:52:08.711Z,1011
2018-01-28T01:53:11.203Z,1010.9
2018-01-28T01:54:13.684Z,1011
2018-01-28T01:55:16.191Z,1011.1
2018-01-28T01:56:18.684Z,1011
2018-01-28T01:57:21.480Z,1011
2018-01-28T01:58:23.971Z,1010.9
2018-01-28T01:59:26.463Z,1011
2018-01-28T02:00:28.954Z,1011
2018-01-28T02:01:31.463Z,1011
2018-01-28T02:02:33.949Z,1011.1
2018-01-28T02:03:36.438Z,1011.1
2018-01-28T02:04:38.931Z,1011
2018-01-28T02:05:41.420Z,1011.1
2018-01-28T02:06:43.916Z,1011
2018-01-28T02:07:46.698Z,1011.1
2018-01-28T02:08:49.194Z,1011.2
2018-01-28T02:09:51.686Z,1010.9
2018-01-28T02:10:54.185Z,1011
2018-01-28T02:11:56.977Z,1011.2
2018-01-28T02:12:59.449Z,1011.1
2018-01-28T02:14:01.946Z,1011
2018-01-28T02:15:04.719Z,1011.2
2018-01-28T02:16:07.214Z,1011.2
2018-01-28T02:17:09.704Z,1011.2
2018-01-28T02:18:12.200Z,1011.1
2018-01-28T02:19:14.686Z,1011.1
2018-01-28T02:20:17.487Z,1011
2018-01-28T02:21:20.277Z,1011
2018-01-28T02:22:22.766Z,1011
2018-01-28T02:23:25.260Z,1011
2018-01-28T02:24:27.763Z,1011
2018-01-28T02:25:30.243Z,1011
2018-01-28T02:26:33.028Z,1010.8
2018-01-28T02:27:35.535Z,1011
2018-01-28T02:28:38.013Z,1011.1
2018-01-28T02:29:40.500Z,1011
2018-01-28T02:30:43.281Z,1010.9
2018-01-28T02:31:45.781Z,1011.1
2018-01-28T02:32:48.580Z,1010.9
2018-01-28T02:33:51.084Z,1010.9
2018-01-28T02:34:53.560Z,1010.8
2018-01-28T02:35:56.076Z,1010.9
2018-01-28T02:36:58.550Z,1010.8
2018-01-28T02:38:01.060Z,1010.9
2018-01-28T02:39:03.841Z,1010.9
2018-01-28T02:40:06.340Z,1011
2018-01-28T02:41:08.835Z,1010.8
2018-01-28T02:42:11.325Z,1010.8
2018-01-28T02:43:13.814Z,1010.8
2018-01-28T02:44:16.317Z,1010.8
2018-01-28T02:45:18.795Z,1010.7
2018-01-28T02:46:21.292Z,1010.7
2018-01-28T02:47:23.781Z,1010.7
2018-01-28T02:48:26.282Z,1010.7
2018-01-28T02:49:28.770Z,1010.7
2018-01-28T02:50:31.269Z,1010.8
2018-01-28T02:51:33.761Z,1010.8
2018-01-28T02:52:36.264Z,1010.9
2018-01-28T02:53:38.747Z,1010.9
2018-01-28T02:54:41.242Z,1010.9
2018-01-28T02:55:43.738Z,1010.8
2018-01-28T02:56:46.230Z,1010.8
2018-01-28T02:57:48.719Z,1010.8
2018-01-28T02:58:51.218Z,1010.8
2018-01-28T02:59:53.701Z,1010.9
2018-01-28T03:00:56.502Z,1010.9
2018-01-28T03:01:59.281Z,1010.9
2018-01-28T03:03:01.768Z,1010.9
2018-01-28T03:04:04.268Z,1010.8
2018-01-28T03:05:06.756Z,1010.8
2018-01-28T03:06:09.247Z,1010.7
2018-01-28T03:07:11.744Z,1010.6
2018-01-28T03:08:14.226Z,1010.8
2018-01-28T03:09:16.713Z,1010.8
2018-01-28T03:10:19.228Z,1010.7
2018-01-28T03:11:21.725Z,1010.7
2018-01-28T03:12:24.201Z,1010.7
2018-01-28T03:13:26.701Z,1010.7
2018-01-28T03:14:29.480Z,1010.8
2018-01-28T03:15:31.985Z,1010.8
2018-01-28T03:16:34.485Z,1010.8
2018-01-28T03:17:36.969Z,1010.9
2018-01-28T03:18:39.463Z,1010.9
2018-01-28T03:19:41.969Z,1010.9
2018-01-28T03:20:44.452Z,1010.8
2018-01-28T03:21:46.938Z,1010.8
2018-01-28T03:22:49.435Z,1010.9
2018-01-28T03:23:52.218Z,1011
2018-01-28T03:24:55.275Z,1011
2018-01-28T03:25:57.770Z,1010.9
2018-01-28T03:27:00.283Z,1011
2018-01-28T03:28:02.777Z,1011
2018-01-28T03:29:05.286Z,1010.9
2018-01-28T03:30:07.767Z,1011
2018-01-28T03:31:10.276Z,1010.8
2018-01-28T03:32:13.054Z,1011
2018-01-28T03:33:15.886Z,1011
2018-01-28T03:34:18.366Z,1011
2018-01-28T03:35:20.872Z,1011
2018-01-28T03:36:23.646Z,1011.1
2018-01-28T03:37:26.142Z,1011.1
2018-01-28T03:38:28.630Z,1011.1
2018-01-28T03:39:31.120Z,1011.1
2018-01-28T03:40:33.897Z,1011.2
2018-01-28T03:41:36.693Z,1011.2
2018-01-28T03:42:39.174Z,1011.1
2018-01-28T03:43:41.676Z,1011.1
2018-01-28T03:44:44.164Z,1011.1
2018-01-28T03:45:46.660Z,1011.1
2018-01-28T03:46:49.446Z,1011.1
2018-01-28T03:47:52.234Z,1011.1
2018-01-28T03:48:54.716Z,1011
2018-01-28T03:49:57.219Z,1011.1
2018-01-28T03:50:59.711Z,1011.1
2018-01-28T03:52:02.213Z,1011.1
2018-01-28T03:53:04.700Z,1011.1
2018-01-28T03:54:07.191Z,1011.2
2018-01-28T03:55:09.693Z,1011.2
2018-01-28T03:56:12.180Z,1011.3
2018-01-28T03:57:14.983Z,1011.3
2018-01-28T03:58:17.477Z,1011.3
2018-01-28T03:59:19.964Z,1011.4
2018-01-28T04:00:22.477Z,1011.4
2018-01-28T04:01:24.971Z,1011.3
2018-01-28T04:02:27.452Z,1011.4
2018-01-28T04:03:29.948Z,1011.3
2018-01-28T04:04:32.731Z,1011.4
2018-01-28T04:05:35.512Z,1011.3
2018-01-28T04:06:38.023Z,1011.3
2018-01-28T04:07:40.505Z,1011.5
2018-01-28T04:08:43.002Z,1011.4
2018-01-28T04:09:45.499Z,1011.4
2018-01-28T04:10:47.990Z,1011.6
2018-01-28T04:11:50.492Z,1011.5
2018-01-28T04:12:52.981Z,1011.4
2018-01-28T04:13:55.474Z,1011.5
2018-01-28T04:14:57.979Z,1011.5
2018-01-28T04:16:00.470Z,1011.5
2018-01-28T04:17:02.956Z,1011.4
2018-01-28T04:18:05.453Z,1011.5
2018-01-28T04:19:07.950Z,1011.5
2018-01-28T04:20:11.026Z,1011.5
2018-01-28T04:21:13.518Z,1011.5
2018-01-28T04:22:16.015Z,1011.5
2018-01-28T04:23:18.508Z,1011.5
2018-01-28T04:24:20.998Z,1011.6
2018-01-28T04:25:23.497Z,1011.5
2018-01-28T04:26:25.992Z,1011.6
2018-01-28T04:27:28.478Z,1011.6
2018-01-28T04:28:30.979Z,1011.6
2018-01-28T04:29:33.757Z,1011.6
2018-01-28T04:30:36.251Z,1011.5
2018-01-28T04:31:38.746Z,1011.6
2018-01-28T04:32:41.534Z,1011.6
2018-01-28T04:33:44.018Z,1011.6
2018-01-28T04:34:46.801Z,1011.6
2018-01-28T04:35:49.291Z,1011.7
2018-01-28T04:36:52.078Z,1011.7
2018-01-28T04:37:54.856Z,1011.8
2018-01-28T04:38:57.341Z,1011.8
2018-01-28T04:40:00.141Z,1011.7
2018-01-28T04:41:02.927Z,1011.8
2018-01-28T04:42:05.708Z,1011.8
2018-01-28T04:43:08.500Z,1011.8
2018-01-28T04:44:10.996Z,1011.8
2018-01-28T04:45:13.490Z,1011.7
2018-01-28T04:46:15.986Z,1011.8
2018-01-28T04:47:18.475Z,1011.7
2018-01-28T04:48:20.968Z,1011.8
2018-01-28T04:49:23.452Z,1011.8
2018-01-28T04:50:25.958Z,1011.8
2018-01-28T04:51:28.458Z,1011.7
2018-01-28T04:52:30.944Z,1011.8
2018-01-28T04:53:33.439Z,1011.7
2018-01-28T04:54:35.936Z,1011.8
2018-01-28T04:55:38.425Z,1011.8
2018-01-28T04:56:40.920Z,1011.8
2018-01-28T04:57:43.403Z,1011.9
2018-01-28T04:58:45.892Z,1011.8
2018-01-28T04:59:48.410Z,1011.8
2018-01-28T05:00:50.896Z,1011.9
2018-01-28T05:01:53.397Z,1011.8
2018-01-28T05:02:55.889Z,1011.8
2018-01-28T05:03:58.379Z,1011.8
2018-01-28T05:05:00.891Z,1011.9
2018-01-28T05:06:03.430Z,1011.9
2018-01-28T05:07:05.861Z,1011.9
2018-01-28T05:08:08.358Z,1012
2018-01-28T05:09:10.851Z,1012.1
2018-01-28T05:10:13.345Z,1012
2018-01-28T05:11:15.854Z,1012
2018-01-28T05:12:18.620Z,1011.9
2018-01-28T05:13:21.124Z,1011.9
2018-01-28T05:14:23.635Z,1011.9
2018-01-28T05:15:26.124Z,1012
2018-01-28T05:16:28.660Z,1012.1
2018-01-28T05:17:31.106Z,1012
2018-01-28T05:18:33.595Z,1012.1
2018-01-28T05:19:36.087Z,1012.2
2018-01-28T05:20:38.587Z,1012.2
2018-01-28T05:21:41.080Z,1012.2
2018-01-28T05:22:43.576Z,1012.3
2018-01-28T05:23:46.089Z,1012.2
2018-01-28T05:24:48.583Z,1012.2
2018-01-28T05:25:51.064Z,1012.2
2018-01-28T05:26:53.573Z,1012.2
2018-01-28T05:27:56.058Z,1012.2
2018-01-28T05:28:58.557Z,1012.3
2018-01-28T05:30:01.051Z,1012.2
2018-01-28T05:31:03.825Z,1012.2
2018-01-28T05:32:06.320Z,1012.2
2018-01-28T05:33:08.826Z,1012.2
2018-01-28T05:34:11.608Z,1012.2
2018-01-28T05:35:14.110Z,1012.2
2018-01-28T05:36:16.607Z,1012.2
2018-01-28T05:37:19.098Z,1012.3
2018-01-28T05:38:21.607Z,1012.2
2018-01-28T05:39:24.107Z,1012.2
2018-01-28T05:40:26.593Z,1012.2
2018-01-28T05:41:29.381Z,1012.3
2018-01-28T05:42:31.877Z,1012.2
2018-01-28T05:43:34.377Z,1012.3
2018-01-28T05:44:36.872Z,1012.3
2018-01-28T05:45:39.363Z,1012.3
2018-01-28T05:46:41.855Z,1012.3
2018-01-28T05:47:44.372Z,1012.3
2018-01-28T05:48:46.867Z,1012.3
2018-01-28T05:49:49.338Z,1012.3
2018-01-28T05:50:51.847Z,1012.3
2018-01-28T05:51:54.626Z,1012.3
2018-01-28T05:52:57.121Z,1012.3
2018-01-28T05:53:59.619Z,1012.4
2018-01-28T05:55:02.396Z,1012.5
2018-01-28T05:56:04.885Z,1012.5
2018-01-28T05:57:07.683Z,1012.5
2018-01-28T05:58:10.173Z,1012.6
2018-01-28T05:59:12.671Z,1012.5
2018-01-28T06:00:15.165Z,1012.6
2018-01-28T06:01:17.663Z,1012.6
2018-01-28T06:02:20.153Z,1012.5
2018-01-28T06:03:22.655Z,1012.6
2018-01-28T06:04:25.424Z,1012.6
2018-01-28T06:05:27.924Z,1012.5
2018-01-28T06:06:30.419Z,1012.5
2018-01-28T06:07:32.917Z,1012.5
2018-01-28T06:08:35.410Z,1012.5
2018-01-28T06:09:37.910Z,1012.6
2018-01-28T06:10:40.965Z,1012.6
2018-01-28T06:11:43.479Z,1012.6
2018-01-28T06:12:45.977Z,1012.6
2018-01-28T06:13:48.468Z,1012.6
2018-01-28T06:14:50.969Z,1012.7
2018-01-28T06:15:53.462Z,1012.7
2018-01-28T06:16:55.958Z,1012.7
2018-01-28T06:17:58.455Z,1012.7
2018-01-28T06:19:00.952Z,1012.7
2018-01-28T06:20:03.446Z,1012.7
2018-01-28T06:21:06.216Z,1012.7
2018-01-28T06:22:08.715Z,1012.8
2018-01-28T06:23:11.214Z,1012.7
2018-01-28T06:24:13.715Z,1012.8
2018-01-28T06:25:16.217Z,1012.8
2018-01-28T06:26:18.704Z,1012.9
2018-01-28T06:27:21.205Z,1012.9
2018-01-28T06:28:23.706Z,1012.9
2018-01-28T06:29:26.481Z,1012.8
2018-01-28T06:30:29.296Z,1012.9
2018-01-28T06:31:31.777Z,1012.9
2018-01-28T06:32:34.564Z,1012.9
2018-01-28T06:33:37.057Z,1013
2018-01-28T06:34:39.851Z,1013.1
2018-01-28T06:35:42.344Z,1013
2018-01-28T06:36:45.131Z,1013.1
2018-01-28T06:37:47.620Z,1013.1
2018-01-28T06:38:50.115Z,1013
2018-01-28T06:39:52.604Z,1013.2
2018-01-28T06:40:55.101Z,1013.1
2018-01-28T06:41:57.597Z,1013.1
2018-01-28T06:43:00.096Z,1013.1
2018-01-28T06:44:02.589Z,1013.2
2018-01-28T06:45:05.373Z,1013.2
2018-01-28T06:46:08.152Z,1013.2
2018-01-28T06:47:10.663Z,1013.2
2018-01-28T06:48:13.164Z,1013.3
2018-01-28T06:49:15.645Z,1013.2
2018-01-28T06:50:18.146Z,1013.2
2018-01-28T06:51:20.637Z,1013
2018-01-28T06:52:23.137Z,1013.1
2018-01-28T06:53:25.637Z,1013.1
2018-01-28T06:54:28.139Z,1013.2
2018-01-28T06:55:30.915Z,1013.2
2018-01-28T06:56:33.425Z,1013.1
2018-01-28T06:57:35.915Z,1013.1
2018-01-28T06:58:38.410Z,1013.2
2018-01-28T06:59:40.912Z,1013.2
2018-01-28T07:00:43.405Z,1013.1
2018-01-28T07:01:45.900Z,1013.1
2018-01-28T07:02:48.402Z,1013.1
2018-01-28T07:03:50.889Z,1013.1
2018-01-28T07:04:53.389Z,1013.1
2018-01-28T07:05:55.888Z,1013.2
2018-01-28T07:06:58.372Z,1013.3
2018-01-28T07:08:00.865Z,1013.2
2018-01-28T07:09:03.369Z,1013.3
2018-01-28T07:10:05.849Z,1013.3
2018-01-28T07:11:08.364Z,1013.3
2018-01-28T07:12:11.142Z,1013.3
2018-01-28T07:13:13.634Z,1013.4
2018-01-28T07:14:16.155Z,1013.3
2018-01-28T07:15:18.754Z,1013.4
2018-01-28T07:16:21.251Z,1013.5
2018-01-28T07:17:23.736Z,1013.5
2018-01-28T07:18:26.249Z,1013.5
2018-01-28T07:19:28.746Z,1013.5
2018-01-28T07:20:31.232Z,1013.6
2018-01-28T07:21:33.734Z,1013.7
2018-01-28T07:22:36.235Z,1013.6
2018-01-28T07:23:38.731Z,1013.7
2018-01-28T07:24:41.552Z,1013.7
2018-01-28T07:25:44.037Z,1013.8
2018-01-28T07:26:46.533Z,1013.8
2018-01-28T07:27:49.040Z,1013.7
2018-01-28T07:28:51.538Z,1013.7
2018-01-28T07:29:54.024Z,1013.6
2018-01-28T07:30:56.511Z,1013.6
2018-01-28T07:31:59.012Z,1013.7
2018-01-28T07:33:01.793Z,1013.6
2018-01-28T07:34:04.297Z,1013.7
2018-01-28T07:35:06.793Z,1013.7
2018-01-28T07:36:09.573Z,1013.7
2018-01-28T07:37:12.086Z,1013.7
2018-01-28T07:38:14.581Z,1013.6
2018-01-28T07:39:17.077Z,1013.6
2018-01-28T07:40:19.573Z,1013.7
2018-01-28T07:41:22.071Z,1013.6
2018-01-28T07:42:24.569Z,1013.7
2018-01-28T07:43:27.067Z,1013.7
2018-01-28T07:44:29.840Z,1013.6
2018-01-28T07:45:32.628Z,1013.6
2018-01-28T07:46:35.129Z,1013.6
2018-01-28T07:47:37.903Z,1013.6
2018-01-28T07:48:40.404Z,1013.6
2018-01-28T07:49:43.556Z,1013.6
2018-01-28T07:50:46.048Z,1013.7
2018-01-28T07:51:48.543Z,1013.6
2018-01-28T07:52:51.035Z,1013.6
2018-01-28T07:53:53.546Z,1013.6
2018-01-28T07:54:56.036Z,1013.6
2018-01-28T07:55:58.529Z,1013.6
2018-01-28T07:57:01.020Z,1013.5
2018-01-28T07:58:03.510Z,1013.6
2018-01-28T07:59:06.011Z,1013.6
2018-01-28T08:00:08.803Z,1013.6
2018-01-28T08:01:11.287Z,1013.6
2018-01-28T08:02:13.797Z,1013.6
2018-01-28T08:03:16.569Z,1013.7
2018-01-28T08:04:19.065Z,1013.6
2018-01-28T08:05:21.569Z,1013.6
2018-01-28T08:06:24.062Z,1013.6
2018-01-28T08:07:26.559Z,1013.6
2018-01-28T08:08:29.367Z,1013.6
2018-01-28T08:09:31.850Z,1013.6
2018-01-28T08:10:34.364Z,1013.7
2018-01-28T08:11:37.149Z,1013.7
2018-01-28T08:12:39.631Z,1013.8
2018-01-28T08:13:42.135Z,1013.8
2018-01-28T08:14:44.626Z,1013.8
2018-01-28T08:15:47.124Z,1013.8
2018-01-28T08:16:49.745Z,1013.8
2018-01-28T08:17:52.355Z,1013.7
2018-01-28T08:18:54.879Z,1013.7
2018-01-28T08:19:58.109Z,1013.7
2018-01-28T08:21:00.623Z,1013.8
2018-01-28T08:22:03.115Z,1013.8
2018-01-28T08:23:05.609Z,1013.7
2018-01-28T08:24:08.111Z,1013.7
2018-01-28T08:25:10.593Z,1013.7
2018-01-28T08:26:13.096Z,1013.7
2018-01-28T08:27:15.595Z,1013.7
2018-01-28T08:28:18.380Z,1013.7
2018-01-28T08:29:20.874Z,1013.6
2018-01-28T08:30:23.375Z,1013.7
2018-01-28T08:31:25.873Z,1013.8
2018-01-28T08:32:28.658Z,1013.8
2018-01-28T08:33:31.440Z,1013.8
2018-01-28T08:34:33.943Z,1013.8
2018-01-28T08:35:36.433Z,1013.8
2018-01-28T08:36:38.943Z,1013.7
2018-01-28T08:37:41.437Z,1013.8
2018-01-28T08:38:44.501Z,1013.8
2018-01-28T08:39:47.293Z,1013.8
2018-01-28T08:40:49.790Z,1013.8
2018-01-28T08:41:52.576Z,1013.8
2018-01-28T08:42:55.077Z,1013.7
2018-01-28T08:43:57.556Z,1013.8
2018-01-28T08:45:00.061Z,1013.7
2018-01-28T08:46:02.566Z,1013.8
2018-01-28T08:47:05.397Z,1013.8
2018-01-28T08:48:08.184Z,1014
2018-01-28T08:49:10.687Z,1014
2018-01-28T08:50:13.189Z,1014
2018-01-28T08:51:15.666Z,1014.1
2018-01-28T08:52:18.165Z,1013.9
2018-01-28T08:53:20.674Z,1014
2018-01-28T08:54:23.164Z,1014
2018-01-28T08:55:25.664Z,1013.9
2018-01-28T08:56:28.160Z,1014
2018-01-28T08:57:30.653Z,1014
2018-01-28T08:58:33.162Z,1013.9
2018-01-28T08:59:35.662Z,1014
2018-01-28T09:00:38.154Z,1014
2018-01-28T09:01:40.942Z,1014
2018-01-28T09:02:43.436Z,1013.8
2018-01-28T09:03:46.215Z,1013.9
2018-01-28T09:04:48.713Z,1013.8
2018-01-28T09:05:51.204Z,1013.8
2018-01-28T09:06:53.699Z,1013.9
2018-01-28T09:07:56.209Z,1013.8
2018-01-28T09:08:58.697Z,1013.9
2018-01-28T09:10:01.197Z,1013.9
2018-01-28T09:11:03.703Z,1013.9
2018-01-28T09:12:06.207Z,1013.9
2018-01-28T09:13:09.014Z,1013.9
2018-01-28T09:14:11.509Z,1014
2018-01-28T09:15:14.316Z,1014
2018-01-28T09:16:17.117Z,1014
2018-01-28T09:17:19.889Z,1014
2018-01-28T09:18:22.390Z,1014
2018-01-28T09:19:24.897Z,1014.1
2018-01-28T09:20:27.397Z,1014.1
2018-01-28T09:21:29.889Z,1014.2
2018-01-28T09:22:32.677Z,1014.3
2018-01-28T09:23:35.157Z,1014.2
2018-01-28T09:24:37.670Z,1014.2
2018-01-28T09:25:40.164Z,1014.2
2018-01-28T09:26:42.655Z,1014.2
2018-01-28T09:27:45.155Z,1014.2
2018-01-28T09:28:47.645Z,1014.2
2018-01-28T09:29:50.145Z,1014.1
2018-01-28T09:30:52.638Z,1014.2
2018-01-28T09:31:55.143Z,1014.2
2018-01-28T09:32:58.215Z,1014
2018-01-28T09:34:00.739Z,1014.1
2018-01-28T09:35:03.520Z,1014.1
2018-01-28T09:36:06.201Z,1014.1
2018-01-28T09:37:08.801Z,1013.9
2018-01-28T09:38:11.297Z,1013.8
2018-01-28T09:39:13.801Z,1013.9
2018-01-28T09:40:16.301Z,1013.9
2018-01-28T09:41:18.792Z,1013.9
2018-01-28T09:42:21.300Z,1013.8
2018-01-28T09:43:24.083Z,1013.9
2018-01-28T09:44:26.586Z,1013.9
2018-01-28T09:45:29.075Z,1014
2018-01-28T09:46:31.862Z,1014.1
2018-01-28T09:47:34.376Z,1014
2018-01-28T09:48:37.147Z,1014.3
2018-01-28T09:49:39.639Z,1014.2
2018-01-28T09:50:42.721Z,1014.2
2018-01-28T09:51:45.214Z,1014.2
2018-01-28T09:52:47.713Z,1014.2
2018-01-28T09:53:50.213Z,1014.2
2018-01-28T09:54:52.710Z,1014.2
2018-01-28T09:55:55.501Z,1014.1
2018-01-28T09:56:58.315Z,1014.1
2018-01-28T09:58:00.795Z,1014.1
2018-01-28T09:59:03.300Z,1014.2
2018-01-28T10:00:05.801Z,1014.1
2018-01-28T10:01:08.863Z,1014.2
2018-01-28T10:02:11.364Z,1014.2
2018-01-28T10:03:14.170Z,1014.3
2018-01-28T10:04:16.666Z,1014.3
2018-01-28T10:05:19.171Z,1014.4
2018-01-28T10:06:21.670Z,1014.5
2018-01-28T10:07:24.456Z,1014.5
2018-01-28T10:08:26.966Z,1014.6
2018-01-28T10:09:29.452Z,1014.5
2018-01-28T10:10:31.949Z,1014.5
2018-01-28T10:11:34.450Z,1014.6
2018-01-28T10:12:36.936Z,1014.7
2018-01-28T10:13:39.438Z,1014.7
2018-01-28T10:14:41.930Z,1014.7
2018-01-28T10:15:44.430Z,1014.6
2018-01-28T10:16:47.214Z,1014.6
2018-01-28T10:17:49.707Z,1014.6
2018-01-28T10:18:52.206Z,1014.6
2018-01-28T10:19:54.991Z,1014.5
2018-01-28T10:20:57.487Z,1014.3
2018-01-28T10:21:59.998Z,1014.4
2018-01-28T10:23:02.490Z,1014.3
2018-01-28T10:24:05.029Z,1014.3
2018-01-28T10:25:07.489Z,1014.5
2018-01-28T10:26:09.999Z,1014.4
2018-01-28T10:27:12.497Z,1014.4
2018-01-28T10:28:14.994Z,1014.6
2018-01-28T10:29:17.485Z,1014.6
2018-01-28T10:30:20.273Z,1014.6
2018-01-28T10:31:22.765Z,1014.5
2018-01-28T10:32:25.252Z,1014.5
2018-01-28T10:33:27.773Z,1014.5
2018-01-28T10:34:30.266Z,1014.6
2018-01-28T10:35:33.047Z,1014.6
2018-01-28T10:36:35.545Z,1014.6
2018-01-28T10:37:38.383Z,1014.7
2018-01-28T10:38:40.882Z,1014.5
2018-01-28T10:39:43.386Z,1014.4
2018-01-28T10:40:45.872Z,1014.5
2018-01-28T10:41:48.368Z,1014.4
2018-01-28T10:42:50.873Z,1014.4
2018-01-28T10:43:53.657Z,1014.4
2018-01-28T10:44:56.153Z,1014.4
2018-01-28T10:45:58.663Z,1014.5
2018-01-28T10:47:01.750Z,1014.5
2018-01-28T10:48:04.404Z,1014.6
2018-01-28T10:49:07.655Z,1014.5
2018-01-28T10:50:10.161Z,1014.5
2018-01-28T10:51:12.654Z,1014.5
2018-01-28T10:52:15.434Z,1014.5
2018-01-28T10:53:17.930Z,1014.5
2018-01-28T10:54:20.438Z,1014.5
2018-01-28T10:55:23.217Z,1014.5
2018-01-28T10:56:25.722Z,1014.5
2018-01-28T10:57:28.206Z,1014.5
2018-01-28T10:58:30.712Z,1014.3
2018-01-28T10:59:33.208Z,1014.5
2018-01-28T11:00:35.708Z,1014.5
2018-01-28T11:01:38.211Z,1014.5
2018-01-28T11:02:41.000Z,1014.5
2018-01-28T11:03:43.782Z,1014.5
2018-01-28T11:04:46.598Z,1014.7
2018-01-28T11:05:49.093Z,1014.8
2018-01-28T11:06:51.572Z,1014.8
2018-01-28T11:07:54.082Z,1014.8
2018-01-28T11:08:56.565Z,1014.8
2018-01-28T11:09:59.353Z,1014.8
2018-01-28T11:11:01.849Z,1014.8
2018-01-28T11:12:04.343Z,1014.7
2018-01-28T11:13:06.838Z,1014.6
2018-01-28T11:14:09.349Z,1014.6
2018-01-28T11:15:11.844Z,1014.6
2018-01-28T11:16:14.343Z,1014.5
2018-01-28T11:17:16.841Z,1014.6
2018-01-28T11:18:19.349Z,1014.7
2018-01-28T11:19:21.839Z,1014.6
2018-01-28T11:20:24.337Z,1014.5
2018-01-28T11:21:27.130Z,1014.5
2018-01-28T11:22:29.618Z,1014.6
2018-01-28T11:23:32.119Z,1014.5
2018-01-28T11:24:34.624Z,1014.5
2018-01-28T11:25:37.397Z,1014.5
2018-01-28T11:26:39.893Z,1014.5
2018-01-28T11:27:42.389Z,1014.4
2018-01-28T11:28:44.890Z,1014.5
2018-01-28T11:29:47.971Z,1014.3
2018-01-28T11:30:50.758Z,1014.3
2018-01-28T11:31:53.261Z,1014.4
2018-01-28T11:32:55.758Z,1014.3
2018-01-28T11:33:58.255Z,1014.3
2018-01-28T11:35:00.754Z,1014.3
2018-01-28T11:36:03.261Z,1014.1
2018-01-28T11:37:05.756Z,1014.3
2018-01-28T11:38:08.270Z,1014.4
2018-01-28T11:39:11.097Z,1014.4
2018-01-28T11:40:13.586Z,1014.5
2018-01-28T11:41:16.086Z,1014.5
2018-01-28T11:42:18.585Z,1014.4
2018-01-28T11:43:21.081Z,1014.4
2018-01-28T11:44:23.873Z,1014.4
2018-01-28T11:45:26.375Z,1014.4
2018-01-28T11:46:28.872Z,1014.4
2018-01-28T11:47:31.379Z,1014.5
2018-01-28T11:48:33.872Z,1014.5
2018-01-28T11:49:36.385Z,1014.6
2018-01-28T11:50:38.915Z,1014.7
2018-01-28T11:51:41.728Z,1014.6
2018-01-28T11:52:44.522Z,1014.5
2018-01-28T11:53:47.023Z,1014.5
2018-01-28T11:54:49.529Z,1014.5
2018-01-28T11:55:52.038Z,1014.5
2018-01-28T11:56:54.522Z,1014.6
2018-01-28T11:57:57.315Z,1014.5
2018-01-28T11:58:59.824Z,1014.5
2018-01-28T12:00:02.322Z,1014.6
2018-01-28T12:01:04.820Z,1014.5
2018-01-28T12:02:07.316Z,1014.6
2018-01-28T12:03:10.095Z,1014.3
2018-01-28T12:04:12.611Z,1014.6
2018-01-28T12:05:15.142Z,1014.6
2018-01-28T12:06:17.612Z,1014.7
2018-01-28T12:07:20.112Z,1014.7
2018-01-28T12:08:22.899Z,1014.6
2018-01-28T12:09:25.691Z,1014.7
2018-01-28T12:10:28.493Z,1014.6
2018-01-28T12:11:31.265Z,1014.6
2018-01-28T12:12:33.767Z,1014.5
2018-01-28T12:13:36.281Z,1014.5
2018-01-28T12:14:38.780Z,1014.3
2018-01-28T12:15:41.570Z,1014.3
2018-01-28T12:16:44.074Z,1014.5
2018-01-28T12:17:46.575Z,1014.6
2018-01-28T12:18:49.077Z,1014.5
2018-01-28T12:19:51.574Z,1014.6
2018-01-28T12:20:54.085Z,1014.5
2018-01-28T12:21:56.568Z,1014.5
2018-01-28T12:22:59.080Z,1014.5
2018-01-28T12:24:01.575Z,1014.5
2018-01-28T12:25:04.078Z,1014.5
2018-01-28T12:26:06.570Z,1014.5
2018-01-28T12:27:09.075Z,1014.4
2018-01-28T12:28:11.554Z,1014.4
2018-01-28T12:29:14.067Z,1014.4
2018-01-28T12:30:16.567Z,1014.4
2018-01-28T12:31:19.072Z,1014.4
2018-01-28T12:32:21.565Z,1014.3
2018-01-28T12:33:24.074Z,1014.4
2018-01-28T12:34:26.562Z,1014.5
2018-01-28T12:35:29.079Z,1014.3
2018-01-28T12:36:31.558Z,1014.5
2018-01-28T12:37:34.068Z,1014.4
2018-01-28T12:38:36.564Z,1014.4
2018-01-28T12:39:39.062Z,1014.5
2018-01-28T12:40:41.563Z,1014.3
2018-01-28T12:41:44.067Z,1014.4
2018-01-28T12:42:46.563Z,1014.4
2018-01-28T12:43:49.063Z,1014.4
2018-01-28T12:44:51.570Z,1014.3
2018-01-28T12:45:54.071Z,1014.3
2018-01-28T12:46:56.558Z,1014.2
2018-01-28T12:47:59.060Z,1014.2
2018-01-28T12:49:01.565Z,1014.3
2018-01-28T12:50:04.352Z,1014.1
2018-01-28T12:51:06.860Z,1014.2
2018-01-28T12:52:09.663Z,1014.2
2018-01-28T12:53:12.445Z,1014.1
2018-01-28T12:54:14.960Z,1014.3
2018-01-28T12:55:17.460Z,1014.3
2018-01-28T12:56:20.232Z,1014.3
2018-01-28T12:57:22.743Z,1014.3
2018-01-28T12:58:25.524Z,1014.2
2018-01-28T12:59:28.029Z,1014.3
2018-01-28T13:00:30.826Z,1014.2
2018-01-28T13:01:33.304Z,1014.1
2018-01-28T13:02:35.800Z,1014.2
2018-01-28T13:03:38.300Z,1014.2
2018-01-28T13:04:40.796Z,1014.1